createdAt,value
2023-09-23T00:01:06.607Z,14.64
2023-09-23T00:03:36.369Z,14.66
2023-09-23T00:06:05.110Z,14.68
2023-09-23T00:08:33.631Z,14.67
2023-09-23T00:11:02.711Z,14.66
2023-09-23T00:13:33.776Z,14.62
2023-09-23T00:16:04.655Z,14.59
2023-09-23T00:18:33.786Z,14.56
2023-09-23T00:21:03.425Z,14.51
2023-09-23T00:23:32.280Z,14.48
2023-09-23T00:26:01.984Z,14.47
2023-09-23T00:28:32.074Z,14.43
2023-09-23T00:31:12.472Z,14.38
2023-09-23T00:33:41.139Z,14.28
2023-09-23T00:36:10.672Z,14.26
2023-09-23T00:38:39.735Z,14.21
2023-09-23T00:41:09.631Z,14.13
2023-09-23T00:43:39.235Z,14.08
2023-09-23T00:46:09.679Z,14.05
2023-09-23T00:48:40.548Z,13.88
2023-09-23T00:51:09.372Z,13.95
2023-09-23T00:53:41.333Z,14.00
2023-09-23T00:56:11.142Z,13.94
2023-09-23T00:58:44.000Z,14.00
2023-09-23T01:01:17.548Z,14.09
2023-09-23T01:03:47.203Z,13.92
2023-09-23T01:06:17.793Z,14.10
2023-09-23T01:08:47.569Z,14.14
2023-09-23T01:11:18.749Z,14.08
2023-09-23T01:13:52.057Z,14.01
2023-09-23T01:16:23.831Z,14.10
2023-09-23T01:18:54.939Z,14.13
2023-09-23T01:21:23.585Z,14.13
2023-09-23T01:23:54.706Z,14.12
2023-09-23T01:26:24.685Z,14.17
2023-09-23T01:28:53.295Z,14.17
2023-09-23T01:31:23.653Z,14.12
2023-09-23T01:33:52.683Z,14.05
2023-09-23T01:36:21.225Z,14.17
2023-09-23T01:38:50.614Z,14.09
2023-09-23T01:41:20.388Z,14.11
2023-09-23T01:43:50.294Z,14.07
2023-09-23T01:46:21.155Z,14.13
2023-09-23T01:48:49.717Z,14.14
2023-09-23T01:51:18.896Z,14.12
2023-09-23T01:53:47.556Z,13.93
2023-09-23T01:56:15.885Z,13.95
2023-09-23T01:58:46.461Z,13.84
2023-09-23T02:01:15.596Z,13.80
2023-09-23T02:03:44.919Z,13.79
2023-09-23T02:06:14.089Z,13.74
2023-09-23T02:08:42.384Z,13.82
2023-09-23T02:11:11.025Z,13.85
2023-09-23T02:13:42.373Z,13.81
2023-09-23T02:16:12.221Z,13.84
2023-09-23T02:18:41.106Z,13.70
2023-09-23T02:21:10.195Z,13.82
2023-09-23T02:23:38.548Z,13.79
2023-09-23T02:26:07.998Z,13.74
2023-09-23T02:28:36.333Z,13.72
2023-09-23T02:31:04.681Z,13.73
2023-09-23T02:33:34.406Z,13.65
2023-09-23T02:36:05.632Z,13.68
2023-09-23T02:38:33.804Z,13.67
2023-09-23T02:41:05.526Z,13.61
2023-09-23T02:43:34.036Z,13.55
2023-09-23T02:46:02.980Z,13.44
2023-09-23T02:48:34.239Z,13.59
2023-09-23T02:51:04.856Z,13.59
2023-09-23T02:53:34.533Z,13.62
2023-09-23T02:56:07.548Z,13.60
2023-09-23T02:58:39.425Z,13.54
2023-09-23T03:01:11.777Z,13.49
2023-09-23T03:03:42.180Z,13.48
2023-09-23T03:06:12.144Z,13.51
2023-09-23T03:08:40.513Z,13.49
2023-09-23T03:11:12.805Z,13.51
2023-09-23T03:13:41.202Z,13.47
2023-09-23T03:16:14.150Z,13.47
2023-09-23T03:18:56.390Z,13.49
2023-09-23T03:21:25.152Z,13.41
2023-09-23T03:23:54.407Z,13.48
2023-09-23T03:26:23.411Z,13.49
2023-09-23T03:28:52.226Z,13.48
2023-09-23T03:31:20.562Z,13.44
2023-09-23T03:33:53.208Z,13.30
2023-09-23T03:36:21.596Z,13.38
2023-09-23T03:38:50.447Z,13.36
2023-09-23T03:41:18.838Z,13.41
2023-09-23T03:43:47.121Z,13.30
2023-09-23T03:46:17.445Z,13.25
2023-09-23T03:48:46.334Z,13.23
2023-09-23T03:51:16.774Z,13.23
2023-09-23T03:53:46.088Z,13.22
2023-09-23T03:56:14.515Z,13.21
2023-09-23T03:58:44.587Z,13.20
2023-09-23T04:01:15.163Z,13.19
2023-09-23T04:03:44.552Z,13.15
2023-09-23T04:06:13.260Z,13.29
2023-09-23T04:08:43.416Z,13.24
2023-09-23T04:11:17.253Z,13.24
2023-09-23T04:13:47.890Z,13.14
2023-09-23T04:16:16.274Z,13.12
2023-09-23T04:18:45.051Z,13.16
2023-09-23T04:21:13.597Z,13.07
2023-09-23T04:23:43.177Z,13.10
2023-09-23T04:26:14.347Z,13.10
2023-09-23T04:28:42.647Z,13.05
2023-09-23T04:31:12.238Z,13.10
2023-09-23T04:33:41.048Z,13.08
2023-09-23T04:36:12.215Z,13.06
2023-09-23T04:38:40.821Z,13.00
2023-09-23T04:41:10.456Z,12.99
2023-09-23T04:43:40.983Z,12.97
2023-09-23T04:46:09.439Z,12.99
2023-09-23T04:48:37.780Z,12.86
2023-09-23T04:51:07.552Z,12.87
2023-09-23T04:53:35.979Z,12.86
2023-09-23T04:56:07.909Z,12.79
2023-09-23T04:58:37.515Z,12.73
2023-09-23T05:01:07.031Z,12.75
2023-09-23T05:03:38.000Z,12.79
2023-09-23T05:06:06.988Z,12.73
2023-09-23T05:08:35.347Z,12.76
2023-09-23T05:11:04.366Z,12.87
2023-09-23T05:13:32.674Z,12.86
2023-09-23T05:16:02.456Z,12.78
2023-09-23T05:18:30.904Z,12.93
2023-09-23T05:20:59.390Z,12.95
2023-09-23T05:23:27.756Z,13.00
2023-09-23T05:25:59.015Z,13.03
2023-09-23T05:28:28.981Z,13.06
2023-09-23T05:30:57.214Z,13.10
2023-09-23T05:33:26.883Z,12.99
2023-09-23T05:35:55.133Z,13.08
2023-09-23T05:38:23.392Z,13.01
2023-09-23T05:40:53.237Z,12.98
2023-09-23T05:43:21.484Z,12.98
2023-09-23T05:45:50.417Z,12.92
2023-09-23T05:48:18.595Z,12.87
2023-09-23T05:50:49.252Z,12.97
2023-09-23T05:53:18.851Z,12.95
2023-09-23T05:55:48.493Z,12.92
2023-09-23T05:58:16.634Z,12.97
2023-09-23T06:00:45.687Z,12.98
2023-09-23T06:03:17.770Z,12.86
2023-09-23T06:05:46.219Z,12.92
2023-09-23T06:08:15.928Z,12.99
2023-09-23T06:10:44.209Z,13.06
2023-09-23T06:13:12.538Z,13.00
2023-09-23T06:15:40.942Z,13.00
2023-09-23T06:18:10.042Z,12.98
2023-09-23T06:20:38.516Z,13.11
2023-09-23T06:23:06.769Z,13.01
2023-09-23T06:25:36.715Z,13.01
2023-09-23T06:28:05.250Z,13.11
2023-09-23T06:30:33.500Z,13.16
2023-09-23T06:33:01.881Z,13.20
2023-09-23T06:35:30.323Z,13.28
2023-09-23T06:38:00.538Z,13.32
2023-09-23T06:40:28.856Z,13.23
2023-09-23T06:42:58.432Z,13.25
2023-09-23T06:45:28.222Z,13.40
2023-09-23T06:47:56.394Z,13.77
2023-09-23T06:50:24.807Z,13.73
2023-09-23T06:52:53.191Z,13.53
2023-09-23T06:55:21.497Z,13.44
2023-09-23T06:57:49.836Z,13.68
2023-09-23T07:00:19.730Z,15.36
2023-09-23T07:02:48.029Z,16.48
2023-09-23T07:05:16.712Z,15.87
2023-09-23T07:07:44.980Z,15.01
2023-09-23T07:10:13.158Z,14.34
2023-09-23T07:12:41.370Z,14.29
2023-09-23T07:15:10.713Z,15.26
2023-09-23T07:17:40.368Z,17.13
2023-09-23T07:20:09.961Z,16.63
2023-09-23T07:22:38.268Z,15.96
2023-09-23T07:25:07.786Z,15.35
2023-09-23T07:27:35.974Z,14.69
2023-09-23T07:30:04.999Z,14.47
2023-09-23T07:32:33.388Z,14.30
2023-09-23T07:35:04.834Z,14.61
2023-09-23T07:37:33.444Z,14.47
2023-09-23T07:40:01.658Z,14.60
2023-09-23T07:42:30.715Z,14.59
2023-09-23T07:44:59.157Z,14.34
2023-09-23T07:47:27.984Z,14.49
2023-09-23T07:49:56.423Z,14.35
2023-09-23T07:52:26.253Z,14.29
2023-09-23T07:54:54.599Z,14.31
2023-09-23T07:57:23.361Z,14.25
2023-09-23T07:59:51.698Z,14.34
2023-09-23T08:02:19.955Z,14.31
2023-09-23T08:04:48.436Z,14.29
2023-09-23T08:07:16.726Z,14.35
2023-09-23T08:09:46.459Z,14.63
2023-09-23T08:12:28.222Z,15.00
2023-09-23T08:14:56.632Z,16.04
2023-09-23T08:17:25.159Z,16.80
2023-09-23T08:19:54.733Z,19.21
2023-09-23T08:22:23.456Z,18.35
2023-09-23T08:24:53.058Z,17.42
2023-09-23T08:27:22.587Z,17.24
2023-09-23T08:29:51.122Z,16.64
2023-09-23T08:32:19.432Z,16.79
2023-09-23T08:34:48.018Z,16.64
2023-09-23T08:37:16.185Z,16.83
2023-09-23T08:39:44.615Z,16.86
2023-09-23T08:42:15.003Z,17.44
2023-09-23T08:44:44.493Z,16.39
2023-09-23T08:47:13.322Z,16.40
2023-09-23T08:49:42.201Z,16.09
2023-09-23T08:52:11.243Z,16.04
2023-09-23T08:54:40.105Z,15.87
2023-09-23T08:57:08.682Z,15.78
2023-09-23T08:59:38.634Z,15.53
2023-09-23T09:02:07.198Z,15.47
2023-09-23T09:04:38.627Z,15.48
2023-09-23T09:07:09.128Z,15.44
2023-09-23T09:09:39.984Z,15.32
2023-09-23T09:12:10.237Z,15.57
2023-09-23T09:14:43.665Z,15.68
2023-09-23T09:17:14.261Z,15.67
2023-09-23T09:19:46.849Z,15.83
2023-09-23T09:22:23.212Z,15.79
2023-09-23T09:24:51.659Z,15.93
2023-09-23T09:27:23.168Z,15.86
2023-09-23T09:30:00.162Z,15.78
2023-09-23T09:32:44.987Z,16.11
2023-09-23T09:35:15.926Z,15.97
2023-09-23T09:37:46.139Z,16.65
2023-09-23T09:40:18.333Z,17.64
2023-09-23T09:42:53.315Z,17.76
2023-09-23T09:45:23.738Z,19.96
2023-09-23T09:47:54.853Z,19.50
2023-09-23T09:50:28.272Z,18.10
2023-09-23T09:52:57.285Z,18.53
2023-09-23T09:55:26.225Z,18.89
2023-09-23T09:57:55.761Z,19.22
2023-09-23T10:00:36.449Z,18.23
2023-09-23T10:03:08.064Z,18.38
2023-09-23T10:05:37.633Z,18.19
2023-09-23T10:08:14.991Z,18.39
2023-09-23T10:10:48.528Z,17.76
2023-09-23T10:13:19.865Z,17.38
2023-09-23T10:15:49.496Z,17.74
2023-09-23T10:18:20.109Z,17.48
2023-09-23T10:20:53.154Z,17.39
2023-09-23T10:23:22.663Z,17.37
2023-09-23T10:25:52.418Z,17.16
2023-09-23T10:28:22.848Z,16.93
2023-09-23T10:31:03.945Z,17.16
2023-09-23T10:33:33.689Z,17.32
2023-09-23T10:36:02.464Z,17.06
2023-09-23T10:38:36.142Z,16.86
2023-09-23T10:41:05.528Z,17.58
2023-09-23T10:43:33.933Z,17.92
2023-09-23T10:46:04.104Z,17.80
2023-09-23T10:48:32.637Z,17.66
2023-09-23T10:51:02.710Z,17.71
2023-09-23T10:53:31.810Z,17.49
2023-09-23T10:56:01.379Z,17.95
2023-09-23T10:58:30.757Z,18.19
2023-09-23T11:00:59.264Z,18.41
2023-09-23T11:03:30.819Z,18.96
2023-09-23T11:05:59.556Z,18.28
2023-09-23T11:08:28.487Z,18.17
2023-09-23T11:10:58.820Z,18.25
2023-09-23T11:13:28.029Z,18.89
2023-09-23T11:15:56.283Z,18.89
2023-09-23T11:18:25.014Z,18.74
2023-09-23T11:20:54.709Z,19.26
2023-09-23T11:23:30.916Z,19.31
2023-09-23T11:25:59.514Z,18.94
2023-09-23T11:28:28.890Z,19.00
2023-09-23T11:30:58.329Z,18.25
2023-09-23T11:33:27.239Z,18.95
2023-09-23T11:35:58.467Z,18.66
2023-09-23T11:38:27.217Z,19.17
2023-09-23T11:40:55.777Z,19.08
2023-09-23T11:43:26.244Z,19.04
2023-09-23T11:45:54.832Z,18.79
2023-09-23T11:48:25.822Z,18.70
2023-09-23T11:50:54.862Z,18.35
2023-09-23T11:53:25.933Z,18.30
2023-09-23T11:55:54.825Z,18.23
2023-09-23T11:58:23.094Z,18.18
2023-09-23T12:00:51.479Z,18.42
2023-09-23T12:03:20.489Z,18.12
2023-09-23T12:05:54.347Z,18.26
2023-09-23T12:08:24.789Z,18.33
2023-09-23T12:10:56.115Z,18.21
2023-09-23T12:13:25.957Z,18.37
2023-09-23T12:15:56.049Z,18.33
2023-09-23T12:18:24.512Z,18.77
2023-09-23T12:20:52.903Z,18.66
2023-09-23T12:23:21.821Z,18.45
2023-09-23T12:25:51.487Z,18.08
2023-09-23T12:28:19.660Z,18.10
2023-09-23T12:30:48.071Z,18.29
2023-09-23T12:33:16.393Z,18.52
2023-09-23T12:35:44.823Z,18.66
2023-09-23T12:38:13.216Z,18.45
2023-09-23T12:40:42.409Z,18.54
2023-09-23T12:43:12.597Z,18.23
2023-09-23T12:45:42.800Z,18.28
2023-09-23T12:48:11.372Z,18.59
2023-09-23T12:50:39.765Z,18.71
2023-09-23T12:53:08.344Z,18.80
2023-09-23T12:55:36.933Z,18.66
2023-09-23T12:58:06.593Z,18.55
2023-09-23T13:00:37.012Z,18.48
2023-09-23T13:03:06.593Z,18.16
2023-09-23T13:05:37.204Z,17.95
2023-09-23T13:08:07.111Z,17.75
2023-09-23T13:10:35.751Z,17.70
2023-09-23T13:13:04.241Z,17.68
2023-09-23T13:15:32.647Z,17.51
2023-09-23T13:18:03.647Z,17.54
2023-09-23T13:20:32.355Z,17.72
2023-09-23T13:23:02.701Z,17.84
2023-09-23T13:25:32.058Z,18.14
2023-09-23T13:28:00.337Z,18.04
2023-09-23T13:30:29.158Z,18.23
2023-09-23T13:32:57.544Z,18.39
2023-09-23T13:35:27.314Z,18.40
2023-09-23T13:37:55.674Z,18.57
2023-09-23T13:40:25.085Z,18.16
2023-09-23T13:42:53.621Z,17.89
2023-09-23T13:45:22.040Z,17.73
2023-09-23T13:47:50.467Z,17.76
2023-09-23T13:50:19.013Z,17.69
2023-09-23T13:52:49.234Z,17.80
2023-09-23T13:55:17.435Z,18.00
2023-09-23T13:57:45.640Z,17.94
2023-09-23T14:00:14.577Z,18.13
2023-09-23T14:02:43.643Z,18.13
2023-09-23T14:05:12.049Z,18.06
2023-09-23T14:07:40.427Z,18.00
2023-09-23T14:10:21.330Z,18.23
2023-09-23T14:12:50.328Z,18.46
2023-09-23T14:15:19.037Z,18.49
2023-09-23T14:17:48.895Z,18.27
2023-09-23T14:20:17.820Z,18.05
2023-09-23T14:22:47.837Z,18.07
2023-09-23T14:25:18.735Z,17.96
2023-09-23T14:27:47.058Z,19.39
2023-09-23T14:30:15.538Z,19.97
2023-09-23T14:32:43.911Z,20.12
2023-09-23T14:35:12.179Z,21.13
2023-09-23T14:37:40.905Z,19.26
2023-09-23T14:40:10.324Z,19.87
2023-09-23T14:42:40.057Z,19.84
2023-09-23T14:45:09.957Z,19.33
2023-09-23T14:47:38.999Z,18.91
2023-09-23T14:50:08.177Z,18.60
2023-09-23T14:52:36.591Z,18.44
2023-09-23T14:55:06.536Z,18.26
2023-09-23T14:57:34.967Z,18.14
2023-09-23T15:00:06.548Z,17.97
2023-09-23T15:02:35.094Z,17.86
2023-09-23T15:05:03.789Z,17.84
2023-09-23T15:07:32.311Z,17.95
2023-09-23T15:10:00.776Z,17.92
2023-09-23T15:12:29.006Z,17.81
2023-09-23T15:14:57.430Z,17.62
2023-09-23T15:17:28.376Z,17.60
2023-09-23T15:19:56.761Z,17.65
2023-09-23T15:22:25.169Z,17.67
2023-09-23T15:24:53.369Z,17.53
2023-09-23T15:27:21.636Z,17.53
2023-09-23T15:29:49.874Z,17.54
2023-09-23T15:32:18.223Z,17.54
2023-09-23T15:34:48.053Z,17.49
2023-09-23T15:37:16.263Z,17.41
2023-09-23T15:39:46.305Z,17.42
2023-09-23T15:42:15.795Z,17.32
2023-09-23T15:44:44.314Z,17.34
2023-09-23T15:47:12.662Z,17.36
2023-09-23T15:49:44.083Z,17.25
2023-09-23T15:52:16.062Z,17.10
2023-09-23T15:54:44.314Z,17.23
2023-09-23T15:57:13.172Z,17.27
2023-09-23T15:59:41.799Z,17.16
2023-09-23T16:02:10.410Z,17.16
2023-09-23T16:04:38.836Z,17.23
2023-09-23T16:07:07.166Z,17.00
2023-09-23T16:09:36.826Z,17.04
2023-09-23T16:12:06.213Z,16.94
2023-09-23T16:14:34.609Z,16.85
2023-09-23T16:17:03.044Z,16.75
2023-09-23T16:19:31.371Z,16.86
2023-09-23T16:21:59.607Z,16.89
2023-09-23T16:24:27.801Z,16.85
2023-09-23T16:26:58.396Z,16.82
2023-09-23T16:29:26.709Z,16.90
2023-09-23T16:31:55.030Z,16.81
2023-09-23T16:34:23.303Z,16.84
2023-09-23T16:36:51.555Z,16.86
2023-09-23T16:39:22.882Z,16.76
2023-09-23T16:41:51.462Z,16.66
2023-09-23T16:44:21.429Z,16.70
2023-09-23T16:46:51.121Z,16.70
2023-09-23T16:49:19.611Z,16.66
2023-09-23T16:51:49.176Z,16.60
2023-09-23T16:54:17.418Z,16.45
2023-09-23T16:56:45.843Z,16.47
2023-09-23T16:59:14.157Z,16.45
2023-09-23T17:01:43.832Z,16.40
2023-09-23T17:04:12.618Z,16.41
2023-09-23T17:06:40.898Z,16.40
2023-09-23T17:09:09.326Z,16.38
2023-09-23T17:11:37.713Z,16.42
2023-09-23T17:14:06.775Z,16.38
2023-09-23T17:16:35.518Z,16.24
2023-09-23T17:19:05.686Z,16.30
2023-09-23T17:21:39.689Z,16.19
2023-09-23T17:24:08.636Z,16.10
2023-09-23T17:26:37.000Z,16.18
2023-09-23T17:29:07.567Z,16.12
2023-09-23T17:31:36.695Z,16.09
2023-09-23T17:34:06.571Z,16.07
2023-09-23T17:36:35.225Z,16.03
2023-09-23T17:39:03.972Z,16.02
2023-09-23T17:41:32.639Z,15.99
2023-09-23T17:44:01.016Z,15.91
2023-09-23T17:46:29.432Z,15.93
2023-09-23T17:48:57.790Z,15.86
2023-09-23T17:51:27.616Z,15.81
2023-09-23T17:53:55.897Z,15.77
2023-09-23T17:56:25.866Z,15.73
2023-09-23T17:58:54.138Z,15.73
2023-09-23T18:01:25.446Z,15.65
2023-09-23T18:03:54.171Z,15.70
2023-09-23T18:06:22.872Z,15.67
2023-09-23T18:08:52.835Z,15.67
2023-09-23T18:11:21.826Z,15.64
2023-09-23T18:13:50.294Z,15.47
2023-09-23T18:16:18.912Z,15.62
2023-09-23T18:18:47.561Z,15.61
2023-09-23T18:21:17.471Z,15.54
2023-09-23T18:23:46.251Z,15.42
2023-09-23T18:26:16.415Z,15.46
2023-09-23T18:28:46.022Z,15.43
2023-09-23T18:31:14.493Z,15.48
2023-09-23T18:33:43.218Z,15.41
2023-09-23T18:36:12.135Z,15.45
2023-09-23T18:38:40.675Z,15.45
2023-09-23T18:41:09.148Z,15.41
2023-09-23T18:43:38.770Z,15.42
2023-09-23T18:46:07.169Z,15.38
2023-09-23T18:48:35.503Z,15.40
2023-09-23T18:51:04.085Z,15.38
2023-09-23T18:53:34.541Z,15.35
2023-09-23T18:56:04.257Z,15.36
2023-09-23T18:58:32.884Z,15.33
2023-09-23T19:01:05.276Z,15.36
2023-09-23T19:03:33.796Z,15.28
2023-09-23T19:06:02.196Z,15.26
2023-09-23T19:08:30.875Z,15.31
2023-09-23T19:10:59.191Z,15.34
2023-09-23T19:13:27.496Z,15.31
2023-09-23T19:15:55.896Z,15.30
2023-09-23T19:18:25.740Z,15.32
2023-09-23T19:20:54.419Z,15.32
2023-09-23T19:23:22.810Z,15.29
2023-09-23T19:25:54.452Z,15.31
2023-09-23T19:28:23.654Z,15.29
2023-09-23T19:30:52.191Z,15.27
2023-09-23T19:33:20.466Z,15.27
2023-09-23T19:35:52.029Z,15.26
2023-09-23T19:38:20.466Z,15.28
2023-09-23T19:40:48.743Z,15.13
2023-09-23T19:43:18.822Z,15.27
2023-09-23T19:45:49.115Z,15.26
2023-09-23T19:48:17.725Z,15.18
2023-09-23T19:50:50.729Z,15.20
2023-09-23T19:53:19.393Z,15.08
2023-09-23T19:55:48.299Z,15.08
2023-09-23T19:58:19.641Z,15.04
2023-09-23T20:00:48.982Z,15.01
2023-09-23T20:03:17.987Z,14.98
2023-09-23T20:05:48.370Z,15.01
2023-09-23T20:08:19.775Z,14.98
2023-09-23T20:10:50.234Z,14.96
2023-09-23T20:13:20.358Z,14.92
2023-09-23T20:15:50.307Z,14.90
2023-09-23T20:18:18.931Z,14.78
2023-09-23T20:20:50.393Z,14.79
2023-09-23T20:23:20.109Z,14.64
2023-09-23T20:25:49.933Z,14.65
2023-09-23T20:28:18.815Z,14.61
2023-09-23T20:30:49.627Z,14.59
2023-09-23T20:33:19.820Z,14.49
2023-09-23T20:35:49.530Z,14.47
2023-09-23T20:38:19.549Z,14.42
2023-09-23T20:40:48.518Z,14.39
2023-09-23T20:43:17.480Z,14.24
2023-09-23T20:45:45.814Z,14.31
2023-09-23T20:48:14.414Z,14.20
2023-09-23T20:50:43.216Z,14.24
2023-09-23T20:53:12.736Z,14.20
2023-09-23T20:55:42.870Z,14.18
2023-09-23T20:58:11.575Z,14.09
2023-09-23T21:00:39.898Z,14.07
2023-09-23T21:03:10.107Z,14.05
2023-09-23T21:05:39.072Z,13.94
2023-09-23T21:08:07.660Z,13.94
2023-09-23T21:10:36.341Z,13.97
2023-09-23T21:13:06.417Z,13.93
2023-09-23T21:15:34.815Z,13.87
2023-09-23T21:18:03.303Z,13.88
2023-09-23T21:20:32.236Z,13.79
2023-09-23T21:23:02.955Z,13.83
2023-09-23T21:25:32.182Z,13.80
2023-09-23T21:28:02.270Z,13.78
2023-09-23T21:30:32.039Z,13.74
2023-09-23T21:33:00.362Z,13.74
2023-09-23T21:35:28.863Z,13.71
2023-09-23T21:37:57.107Z,13.70
2023-09-23T21:40:25.610Z,13.64
2023-09-23T21:42:53.812Z,13.52
2023-09-23T21:45:23.491Z,13.61
2023-09-23T21:47:53.280Z,13.54
2023-09-23T21:50:21.963Z,13.61
2023-09-23T21:52:50.293Z,13.59
2023-09-23T21:55:18.812Z,13.49
2023-09-23T21:57:49.102Z,13.51
2023-09-23T22:00:27.528Z,13.42
2023-09-23T22:02:59.708Z,13.45
2023-09-23T22:05:30.277Z,13.30
2023-09-23T22:08:00.351Z,13.39
2023-09-23T22:10:29.341Z,13.36
2023-09-23T22:13:00.209Z,13.38
2023-09-23T22:15:30.048Z,13.27
2023-09-23T22:17:59.800Z,13.32
2023-09-23T22:20:29.409Z,13.35
2023-09-23T22:23:00.685Z,13.38
2023-09-23T22:25:29.171Z,13.49
2023-09-23T22:27:59.541Z,13.52
2023-09-23T22:30:28.095Z,13.55
2023-09-23T22:32:57.723Z,13.53
2023-09-23T22:35:28.997Z,13.55
2023-09-23T22:37:58.216Z,13.52
2023-09-23T22:40:26.797Z,13.49
2023-09-23T22:42:59.097Z,13.34
2023-09-23T22:48:00.510Z,13.41
2023-09-23T22:50:30.383Z,13.37
2023-09-23T22:52:59.030Z,13.23
2023-09-23T22:55:27.454Z,13.34
2023-09-23T22:57:56.870Z,13.30
2023-09-23T23:00:28.618Z,13.28
2023-09-23T23:02:58.293Z,13.30
2023-09-23T23:05:27.951Z,13.27
2023-09-23T23:07:58.582Z,13.20
2023-09-23T23:10:26.989Z,13.17
2023-09-23T23:12:55.747Z,13.16
2023-09-23T23:15:24.538Z,13.15
2023-09-23T23:17:53.866Z,13.07
2023-09-23T23:20:24.356Z,13.11
2023-09-23T23:22:54.118Z,13.10
2023-09-23T23:25:25.284Z,13.18
2023-09-23T23:27:54.387Z,13.26
2023-09-23T23:30:22.944Z,13.36
2023-09-23T23:32:53.145Z,13.40
2023-09-23T23:35:23.585Z,13.43
2023-09-23T23:37:52.942Z,13.48
2023-09-23T23:40:22.632Z,13.47
2023-09-23T23:42:52.778Z,13.63
2023-09-23T23:45:22.163Z,13.65
2023-09-23T23:47:56.465Z,13.68
2023-09-23T23:50:25.124Z,13.71
2023-09-23T23:52:53.705Z,13.73
2023-09-23T23:55:26.191Z,13.71
2023-09-23T23:57:56.350Z,13.71
